Norberto de la Riestra, Argentina
Current Conditions -  °F | °C
As of 12:00 PM on Monday 22 Dec 2014 (Local Time) from SAEZ Reporting Station
Few Clouds Few Clouds  
Wind Chill: 68°   Ceiling: Unl
Heat Index: 68°   Visibility: 6mi
Dew Point: 48°   Wind: 12mph
Humidity: 49%   Direction: 230°SW
Pressure: 30.09"   Gusts: NA
Location:  35.27°S, 59.77°W
Report Text: SAEZ 221500Z 23010KT 190V260 9999 FEW045TCU 20/09 Q1019
Loading
Personal Weather Stations






























Interactive Weather Map New forecast layout! Learn more

10-Day Weather Forecast

Advertisements
Track Severe Weather on mobile